createdAt,value
2023-09-16T00:01:56.245Z,6.57
2023-09-16T00:04:27.438Z,6.68
2023-09-16T00:06:54.790Z,7.10
2023-09-16T00:09:22.141Z,6.47
2023-09-16T00:11:49.289Z,5.95
2023-09-16T00:14:19.608Z,6.70
2023-09-16T00:16:47.310Z,5.72
2023-09-16T00:19:14.488Z,5.85
2023-09-16T00:21:42.937Z,5.78
2023-09-16T00:24:11.192Z,6.10
2023-09-16T00:26:38.417Z,5.90
2023-09-16T00:29:05.545Z,6.25
2023-09-16T00:31:34.431Z,5.78
2023-09-16T00:34:01.681Z,5.50
2023-09-16T00:36:29.448Z,5.50
2023-09-16T00:38:56.843Z,5.22
2023-09-16T00:41:24.036Z,5.18
2023-09-16T00:43:51.697Z,5.22
2023-09-16T00:46:18.934Z,5.80
2023-09-16T00:48:46.640Z,5.03
2023-09-16T00:51:17.358Z,5.20
2023-09-16T00:53:46.176Z,5.30
2023-09-16T00:56:13.997Z,5.13
2023-09-16T00:58:42.609Z,5.43
2023-09-16T01:01:17.244Z,5.07
2023-09-16T01:03:45.586Z,4.78
2023-09-16T01:06:17.373Z,5.20
2023-09-16T01:08:47.888Z,4.78
2023-09-16T01:11:15.401Z,4.63
2023-09-16T01:13:42.684Z,4.82
2023-09-16T01:16:16.000Z,4.85
2023-09-16T01:18:47.820Z,4.95
2023-09-16T01:21:15.482Z,4.80
2023-09-16T01:23:45.098Z,4.70
2023-09-16T01:26:12.439Z,4.90
2023-09-16T01:28:39.753Z,4.80
2023-09-16T01:31:07.993Z,4.57
2023-09-16T01:33:53.508Z,4.55
2023-09-16T01:36:26.329Z,4.38
2023-09-16T01:38:57.080Z,4.63
2023-09-16T01:41:25.063Z,4.30
2023-09-16T01:43:52.374Z,4.55
2023-09-16T01:46:19.712Z,4.53
2023-09-16T01:48:47.654Z,4.88
2023-09-16T01:51:15.713Z,4.47
2023-09-16T01:53:43.628Z,3.97
2023-09-16T01:56:10.850Z,4.25
2023-09-16T01:58:38.039Z,3.92
2023-09-16T02:01:10.425Z,4.57
2023-09-16T02:03:37.593Z,4.10
2023-09-16T02:06:06.801Z,3.97
2023-09-16T02:08:34.160Z,4.00
2023-09-16T02:11:01.521Z,4.60
2023-09-16T02:13:28.712Z,3.90
2023-09-16T02:15:56.336Z,4.93
2023-09-16T02:18:23.623Z,4.15
2023-09-16T02:20:50.936Z,4.22
2023-09-16T02:23:18.126Z,4.07
2023-09-16T02:25:45.405Z,3.83
2023-09-16T02:28:12.657Z,4.00
2023-09-16T02:30:39.929Z,4.00
2023-09-16T02:33:07.238Z,4.13
2023-09-16T02:35:34.500Z,3.95
2023-09-16T02:38:03.532Z,3.97
2023-09-16T02:40:31.936Z,3.97
2023-09-16T02:43:00.443Z,4.10
2023-09-16T02:45:28.745Z,4.20
2023-09-16T02:47:56.030Z,4.20
2023-09-16T02:50:23.279Z,3.78
2023-09-16T02:52:50.564Z,3.80
2023-09-16T02:55:17.859Z,4.05
2023-09-16T02:57:45.028Z,4.10
2023-09-16T03:00:12.637Z,3.85
2023-09-16T03:02:39.953Z,4.75
2023-09-16T03:05:07.310Z,3.85
2023-09-16T03:07:34.751Z,3.90
2023-09-16T03:10:02.022Z,3.65
2023-09-16T03:12:30.158Z,3.90
2023-09-16T03:14:57.519Z,3.90
2023-09-16T03:17:24.740Z,3.97
2023-09-16T03:19:51.993Z,3.55
2023-09-16T03:22:19.326Z,3.88
2023-09-16T03:24:46.574Z,3.80
2023-09-16T03:27:13.820Z,3.72
2023-09-16T03:29:41.222Z,3.67
2023-09-16T03:32:08.465Z,4.10
2023-09-16T03:34:36.032Z,4.00
2023-09-16T03:37:04.939Z,3.47
2023-09-16T03:39:32.240Z,3.80
2023-09-16T03:42:00.102Z,4.10
2023-09-16T03:44:27.383Z,4.10
2023-09-16T03:46:54.578Z,4.10
2023-09-16T03:49:21.795Z,4.00
2023-09-16T03:51:48.977Z,4.20
2023-09-16T03:54:18.043Z,3.88
2023-09-16T03:56:45.282Z,4.55
2023-09-16T03:59:14.961Z,4.00
2023-09-16T04:01:42.469Z,4.20
2023-09-16T04:04:09.854Z,4.18
2023-09-16T04:06:37.219Z,4.30
2023-09-16T04:09:04.559Z,4.38
2023-09-16T04:11:31.768Z,3.95
2023-09-16T04:13:58.943Z,4.35
2023-09-16T04:16:26.764Z,4.03
2023-09-16T04:18:54.796Z,4.38
2023-09-16T04:21:22.241Z,4.43
2023-09-16T04:23:49.589Z,4.70
2023-09-16T04:26:17.211Z,4.20
2023-09-16T04:28:46.449Z,4.07
2023-09-16T04:31:14.121Z,4.18
2023-09-16T04:33:41.979Z,4.18
2023-09-16T04:36:10.405Z,3.88
2023-09-16T04:38:38.963Z,3.95
2023-09-16T04:41:06.711Z,4.18
2023-09-16T04:43:34.152Z,4.15
2023-09-16T04:46:02.621Z,3.95
2023-09-16T04:48:40.554Z,4.50
2023-09-16T04:51:07.816Z,4.22
2023-09-16T04:53:35.276Z,4.80
2023-09-16T04:56:03.415Z,4.60
2023-09-16T04:58:33.268Z,4.20
2023-09-16T05:01:01.287Z,4.18
2023-09-16T05:03:29.285Z,4.28
2023-09-16T05:05:57.007Z,4.32
2023-09-16T05:08:28.758Z,4.30
2023-09-16T05:10:57.541Z,3.97
2023-09-16T05:13:24.850Z,4.20
2023-09-16T05:15:53.016Z,3.83
2023-09-16T05:18:20.424Z,4.13
2023-09-16T05:20:48.060Z,4.50
2023-09-16T05:23:15.430Z,4.05
2023-09-16T05:25:49.650Z,3.92
2023-09-16T05:28:37.099Z,4.13
2023-09-16T05:31:05.737Z,4.60
2023-09-16T05:36:03.134Z,3.95
2023-09-16T05:38:30.865Z,4.38
2023-09-16T05:40:58.338Z,4.50
2023-09-16T05:43:25.588Z,4.45
2023-09-16T05:45:53.668Z,4.40
2023-09-16T05:48:22.184Z,4.40
2023-09-16T05:50:59.406Z,4.03
2023-09-16T05:53:29.118Z,4.65
2023-09-16T05:56:03.479Z,4.25
2023-09-16T05:58:31.077Z,4.10
2023-09-16T06:00:59.020Z,4.30
2023-09-16T06:03:26.378Z,4.38
2023-09-16T06:06:00.793Z,4.40
2023-09-16T06:08:28.123Z,4.47
2023-09-16T06:10:57.512Z,4.53
2023-09-16T06:13:25.635Z,4.28
2023-09-16T06:15:54.218Z,4.10
2023-09-16T06:20:51.136Z,4.22
2023-09-16T06:23:18.333Z,4.90
2023-09-16T06:25:47.589Z,4.30
2023-09-16T06:28:14.818Z,4.43
2023-09-16T06:30:42.119Z,4.28
2023-09-16T06:33:09.394Z,3.95
2023-09-16T06:35:37.122Z,4.28
2023-09-16T06:38:05.297Z,4.18
2023-09-16T06:40:32.476Z,4.60
2023-09-16T06:42:59.666Z,3.85
2023-09-16T06:45:29.635Z,4.25
2023-09-16T06:47:57.457Z,4.35
2023-09-16T06:50:24.711Z,3.92
2023-09-16T06:52:51.877Z,4.60
2023-09-16T06:55:19.339Z,4.63
2023-09-16T07:00:31.520Z,4.82
2023-09-16T07:02:59.927Z,4.97
2023-09-16T07:05:30.636Z,4.45
2023-09-16T07:07:58.096Z,5.05
2023-09-16T07:10:25.316Z,4.78
2023-09-16T07:12:52.619Z,4.72
2023-09-16T07:15:20.693Z,5.18
2023-09-16T07:17:48.133Z,4.47
2023-09-16T07:20:15.370Z,4.53
2023-09-16T07:22:42.674Z,4.50
2023-09-16T07:25:10.082Z,5.07
2023-09-16T07:27:37.379Z,4.55
2023-09-16T07:30:04.785Z,4.20
2023-09-16T07:32:32.032Z,4.63
2023-09-16T07:34:59.330Z,5.18
2023-09-16T07:37:26.532Z,5.55
2023-09-16T07:39:55.679Z,4.78
2023-09-16T07:42:23.016Z,5.80
2023-09-16T07:44:50.326Z,4.47
2023-09-16T07:47:17.583Z,5.50
2023-09-16T07:49:44.832Z,5.70
2023-09-16T07:52:12.114Z,4.57
2023-09-16T07:54:39.370Z,4.90
2023-09-16T07:57:06.680Z,5.30
2023-09-16T07:59:35.699Z,6.10
2023-09-16T08:02:04.455Z,4.85
2023-09-16T08:04:32.818Z,3.70
2023-09-16T08:07:00.138Z,2.72
2023-09-16T08:09:27.429Z,3.60
2023-09-16T08:11:54.651Z,3.55
2023-09-16T08:14:21.938Z,3.50
2023-09-16T08:16:49.210Z,3.35
2023-09-16T08:19:18.439Z,3.38
2023-09-16T08:21:45.860Z,3.33
2023-09-16T08:24:13.085Z,3.40
2023-09-16T08:26:40.274Z,3.50
2023-09-16T08:29:07.538Z,3.25
2023-09-16T08:31:34.808Z,3.30
2023-09-16T08:34:05.451Z,3.47
2023-09-16T08:36:32.777Z,3.45
2023-09-16T08:39:00.085Z,3.40
2023-09-16T08:41:36.746Z,3.33
2023-09-16T08:44:06.251Z,3.40
2023-09-16T08:46:35.362Z,3.30
2023-09-16T08:49:04.657Z,3.47
2023-09-16T08:51:33.675Z,3.60
2023-09-16T08:54:02.575Z,3.70
2023-09-16T08:56:30.394Z,3.30
2023-09-16T08:58:58.061Z,3.47
2023-09-16T09:01:26.096Z,3.45
2023-09-16T09:03:54.454Z,3.50
2023-09-16T09:06:37.882Z,3.30
2023-09-16T09:09:07.103Z,3.40
2023-09-16T09:11:34.766Z,3.13
2023-09-16T09:14:04.688Z,2.75
2023-09-16T09:16:32.380Z,3.60
2023-09-16T09:18:59.998Z,3.67
2023-09-16T09:21:27.272Z,3.58
2023-09-16T09:23:54.692Z,3.40
2023-09-16T09:26:24.961Z,3.45
2023-09-16T09:31:19.982Z,3.70
2023-09-16T09:33:49.496Z,3.22
2023-09-16T09:36:17.894Z,3.47
2023-09-16T09:38:45.715Z,3.25
2023-09-16T09:41:13.579Z,3.50
2023-09-16T09:43:40.826Z,3.20
2023-09-16T09:46:08.182Z,3.20
2023-09-16T09:48:38.117Z,3.20
2023-09-16T09:51:08.469Z,2.88
2023-09-16T09:53:35.997Z,3.33
2023-09-16T09:56:03.287Z,3.30
2023-09-16T09:58:32.989Z,3.30
2023-09-16T10:01:00.777Z,3.10
2023-09-16T10:03:28.559Z,3.22
2023-09-16T10:05:56.859Z,3.20
2023-09-16T10:08:24.748Z,3.05
2023-09-16T10:10:53.909Z,3.03
2023-09-16T10:13:21.228Z,3.13
2023-09-16T10:15:49.051Z,3.50
2023-09-16T10:18:17.684Z,3.22
2023-09-16T10:20:45.319Z,3.05
2023-09-16T10:23:12.981Z,2.97
2023-09-16T10:25:41.557Z,3.28
2023-09-16T10:28:09.721Z,3.15
2023-09-16T10:30:38.035Z,3.00
2023-09-16T10:33:09.490Z,3.00
2023-09-16T10:35:41.217Z,3.03
2023-09-16T10:38:09.326Z,3.00
2023-09-16T10:40:39.384Z,2.90
2023-09-16T10:43:07.495Z,3.17
2023-09-16T10:45:34.913Z,3.25
2023-09-16T10:48:03.304Z,3.00
2023-09-16T10:50:44.365Z,3.03
2023-09-16T10:53:17.147Z,3.05
2023-09-16T10:56:03.378Z,3.05
2023-09-16T10:58:37.198Z,3.15
2023-09-16T11:01:09.490Z,3.15
2023-09-16T11:03:42.787Z,2.80
2023-09-16T11:06:10.682Z,3.22
2023-09-16T11:08:38.084Z,3.10
2023-09-16T11:11:05.705Z,3.00
2023-09-16T11:13:33.171Z,2.83
2023-09-16T11:16:01.330Z,3.28
2023-09-16T11:18:30.751Z,3.20
2023-09-16T11:20:58.029Z,2.85
2023-09-16T11:23:25.640Z,3.00
2023-09-16T11:25:57.512Z,2.90
2023-09-16T11:28:26.533Z,2.97
2023-09-16T11:30:58.140Z,3.03
2023-09-16T11:33:32.994Z,2.80
2023-09-16T11:36:12.821Z,2.97
2023-09-16T11:38:59.014Z,3.00
2023-09-16T11:41:26.296Z,3.10
2023-09-16T11:43:53.761Z,3.03
2023-09-16T11:46:21.320Z,2.90
2023-09-16T11:48:48.845Z,2.92
2023-09-16T11:51:17.553Z,2.88
2023-09-16T11:53:46.816Z,2.80
2023-09-16T11:56:16.482Z,2.85
2023-09-16T11:58:44.481Z,2.72
2023-09-16T12:01:19.732Z,2.88
2023-09-16T12:03:47.117Z,3.00
2023-09-16T12:06:15.660Z,3.10
2023-09-16T12:08:44.051Z,2.70
2023-09-16T12:11:11.605Z,2.70
2023-09-16T12:13:42.623Z,2.95
2023-09-16T12:16:12.811Z,2.85
2023-09-16T12:21:09.865Z,2.75
2023-09-16T12:26:03.931Z,2.70
2023-09-16T12:28:32.680Z,2.85
2023-09-16T12:30:59.996Z,2.60
2023-09-16T12:33:45.529Z,2.55
2023-09-16T12:36:23.761Z,2.92
2023-09-16T12:38:51.998Z,3.08
2023-09-16T12:41:19.520Z,2.55
2023-09-16T12:43:47.525Z,2.60
2023-09-16T12:46:16.009Z,2.70
2023-09-16T12:48:44.885Z,2.67
2023-09-16T12:51:13.282Z,2.63
2023-09-16T12:53:40.889Z,2.72
2023-09-16T12:56:08.148Z,2.55
2023-09-16T12:58:35.550Z,2.53
2023-09-16T13:01:03.576Z,2.83
2023-09-16T13:03:30.986Z,2.80
2023-09-16T13:06:01.041Z,2.60
2023-09-16T13:08:28.338Z,2.70
2023-09-16T13:10:55.726Z,2.80
2023-09-16T13:13:26.387Z,2.78
2023-09-16T13:15:54.675Z,2.63
2023-09-16T13:18:21.990Z,2.78
2023-09-16T13:20:54.175Z,2.95
2023-09-16T13:23:28.985Z,2.72
2023-09-16T13:26:08.334Z,2.70
2023-09-16T13:28:35.594Z,2.90
2023-09-16T13:31:02.924Z,2.83
2023-09-16T13:33:58.838Z,2.70
2023-09-16T13:36:27.482Z,2.78
2023-09-16T13:38:54.781Z,2.70
2023-09-16T13:41:23.881Z,2.70
2023-09-16T13:43:51.092Z,2.70
2023-09-16T13:46:18.547Z,2.70
2023-09-16T13:48:49.519Z,2.97
2023-09-16T13:51:17.123Z,2.50
2023-09-16T13:53:44.387Z,2.50
2023-09-16T13:56:12.304Z,2.65
2023-09-16T13:58:39.988Z,2.60
2023-09-16T14:01:07.259Z,2.67
2023-09-16T14:03:34.924Z,2.67
2023-09-16T14:06:02.382Z,2.30
2023-09-16T14:08:30.101Z,2.50
2023-09-16T14:10:57.388Z,2.40
2023-09-16T14:13:24.905Z,2.63
2023-09-16T14:15:52.262Z,2.65
2023-09-16T14:18:19.583Z,2.70
2023-09-16T14:20:51.002Z,2.58
2023-09-16T14:23:19.767Z,2.72
2023-09-16T14:25:47.318Z,2.60
2023-09-16T14:28:14.661Z,2.58
2023-09-16T14:30:41.937Z,2.67
2023-09-16T14:33:09.240Z,2.83
2023-09-16T14:35:36.545Z,2.42
2023-09-16T14:38:04.986Z,2.50
2023-09-16T14:40:33.381Z,2.63
2023-09-16T14:43:01.304Z,2.42
2023-09-16T14:45:28.840Z,2.67
2023-09-16T14:47:56.079Z,2.80
2023-09-16T14:50:23.586Z,2.53
2023-09-16T14:52:50.910Z,3.00
2023-09-16T14:55:21.536Z,2.70
2023-09-16T14:57:48.878Z,2.83
2023-09-16T15:00:16.127Z,2.97
2023-09-16T15:02:43.631Z,2.72
2023-09-16T15:05:13.965Z,2.63
2023-09-16T15:10:08.792Z,3.17
2023-09-16T15:12:36.119Z,3.40
2023-09-16T15:15:03.374Z,3.13
2023-09-16T15:17:30.574Z,3.60
2023-09-16T15:19:57.918Z,3.33
2023-09-16T15:22:26.030Z,3.72
2023-09-16T15:24:53.610Z,3.40
2023-09-16T15:27:21.488Z,3.45
2023-09-16T15:29:48.951Z,3.60
2023-09-16T15:32:39.214Z,3.45
2023-09-16T15:35:03.536Z,3.78
2023-09-16T15:37:31.659Z,3.55
2023-09-16T15:39:59.032Z,3.55
2023-09-16T15:42:26.315Z,3.20
2023-09-16T15:44:55.833Z,3.38
2023-09-16T15:47:23.196Z,3.47
2023-09-16T15:49:50.421Z,3.35
2023-09-16T15:52:17.942Z,3.70
2023-09-16T15:54:45.306Z,3.30
2023-09-16T15:57:12.503Z,3.50
2023-09-16T15:59:39.993Z,3.03
2023-09-16T16:02:07.409Z,3.30
2023-09-16T16:04:34.991Z,3.30
2023-09-16T16:07:02.288Z,3.28
2023-09-16T16:09:30.342Z,3.38
2023-09-16T16:11:58.878Z,3.47
2023-09-16T16:14:26.196Z,3.20
2023-09-16T16:16:53.656Z,3.28
2023-09-16T16:19:21.025Z,3.45
2023-09-16T16:21:48.285Z,3.33
2023-09-16T16:24:15.490Z,3.30
2023-09-16T16:26:42.744Z,3.53
2023-09-16T16:29:10.001Z,3.22
2023-09-16T16:31:37.347Z,3.22
2023-09-16T16:34:04.656Z,3.70
2023-09-16T16:36:31.980Z,3.20
2023-09-16T16:38:59.230Z,3.20
2023-09-16T16:41:26.426Z,3.40
2023-09-16T16:43:53.649Z,3.58
2023-09-16T16:46:22.085Z,3.38
2023-09-16T16:48:49.346Z,3.25
2023-09-16T16:51:17.906Z,3.35
2023-09-16T16:53:45.122Z,3.42
2023-09-16T16:56:12.482Z,3.30
2023-09-16T16:58:40.321Z,3.75
2023-09-16T17:01:07.632Z,2.90
2023-09-16T17:03:35.091Z,3.03
2023-09-16T17:06:06.154Z,3.08
2023-09-16T17:08:33.514Z,3.08
2023-09-16T17:11:00.776Z,3.28
2023-09-16T17:13:28.037Z,3.35
2023-09-16T17:15:55.397Z,3.03
2023-09-16T17:18:22.768Z,3.00
2023-09-16T17:20:49.994Z,3.75
2023-09-16T17:23:17.434Z,3.40
2023-09-16T17:25:45.090Z,3.42
2023-09-16T17:28:13.219Z,3.30
2023-09-16T17:30:40.648Z,3.25
2023-09-16T17:33:07.901Z,3.40
2023-09-16T17:35:35.390Z,3.17
2023-09-16T17:38:02.824Z,3.67
2023-09-16T17:40:31.399Z,3.40
2023-09-16T17:42:58.908Z,3.10
2023-09-16T17:45:26.172Z,3.15
2023-09-16T17:47:53.542Z,3.47
2023-09-16T17:50:20.844Z,3.22
2023-09-16T17:52:48.737Z,3.17
2023-09-16T17:55:17.199Z,3.20
2023-09-16T17:57:46.100Z,3.28
2023-09-16T18:00:13.477Z,3.22
2023-09-16T18:02:43.497Z,3.33
2023-09-16T18:05:10.768Z,3.15
2023-09-16T18:07:38.072Z,3.25
2023-09-16T18:10:07.692Z,3.08
2023-09-16T18:12:35.804Z,3.45
2023-09-16T18:15:03.356Z,3.20
2023-09-16T18:17:30.869Z,3.60
2023-09-16T18:19:58.600Z,3.38
2023-09-16T18:22:26.103Z,2.95
2023-09-16T18:24:53.449Z,3.28
2023-09-16T18:27:20.716Z,3.53
2023-09-16T18:29:48.140Z,3.72
2023-09-16T18:32:15.559Z,3.22
2023-09-16T18:34:42.865Z,3.75
2023-09-16T18:37:10.212Z,3.10
2023-09-16T18:39:38.029Z,3.78
2023-09-16T18:42:06.473Z,3.30
2023-09-16T18:44:33.785Z,3.40
2023-09-16T18:47:01.265Z,3.10
2023-09-16T18:49:31.962Z,3.40
2023-09-16T18:51:59.703Z,3.28
2023-09-16T18:54:26.921Z,3.20
2023-09-16T18:56:54.222Z,3.42
2023-09-16T18:59:22.057Z,3.33
2023-09-16T19:01:49.399Z,3.58
2023-09-16T19:04:16.811Z,3.15
2023-09-16T19:06:44.290Z,3.42
2023-09-16T19:09:14.819Z,3.45
2023-09-16T19:11:42.477Z,3.40
2023-09-16T19:14:11.877Z,3.72
2023-09-16T19:16:40.012Z,3.30
2023-09-16T19:19:07.388Z,3.10
2023-09-16T19:21:34.652Z,3.33
2023-09-16T19:24:01.892Z,3.30
2023-09-16T19:26:29.206Z,3.10
2023-09-16T19:28:56.554Z,3.92
2023-09-16T19:31:23.972Z,3.60
2023-09-16T19:33:51.565Z,4.03
2023-09-16T19:36:20.770Z,3.88
2023-09-16T19:38:48.094Z,3.92
2023-09-16T19:41:15.403Z,3.60
2023-09-16T19:43:42.747Z,3.95
2023-09-16T19:46:10.223Z,3.30
2023-09-16T19:48:38.019Z,3.38
2023-09-16T19:51:05.318Z,3.50
2023-09-16T19:53:33.233Z,3.70
2023-09-16T19:56:00.772Z,3.40
2023-09-16T19:58:28.098Z,3.67
2023-09-16T20:01:02.456Z,3.22
2023-09-16T20:03:30.576Z,3.40
2023-09-16T20:05:58.012Z,5.50
2023-09-16T20:08:25.383Z,4.25
2023-09-16T20:10:52.881Z,4.60
2023-09-16T20:13:23.080Z,5.15
2023-09-16T20:15:50.850Z,4.90
2023-09-16T20:18:18.110Z,5.45
2023-09-16T20:20:45.435Z,5.47
2023-09-16T20:23:12.724Z,5.25
2023-09-16T20:25:40.040Z,5.13
2023-09-16T20:28:07.373Z,5.72
2023-09-16T20:30:34.714Z,6.10
2023-09-16T20:33:04.434Z,6.03
2023-09-16T20:35:32.271Z,5.50
2023-09-16T20:37:59.601Z,5.68
2023-09-16T20:40:27.556Z,5.93
2023-09-16T20:42:54.796Z,5.55
2023-09-16T20:45:22.114Z,5.45
2023-09-16T20:47:49.404Z,5.18
2023-09-16T20:50:16.637Z,4.75
2023-09-16T20:52:44.138Z,5.22
2023-09-16T20:55:11.771Z,4.80
2023-09-16T20:57:39.330Z,4.30
2023-09-16T21:00:10.313Z,4.72
2023-09-16T21:02:37.853Z,4.68
2023-09-16T21:05:05.627Z,5.40
2023-09-16T21:07:32.955Z,4.70
2023-09-16T21:10:01.208Z,5.43
2023-09-16T21:12:28.440Z,4.95
2023-09-16T21:14:55.888Z,5.10
2023-09-16T21:17:23.203Z,5.40
2023-09-16T21:19:50.756Z,4.20
2023-09-16T21:22:18.399Z,5.68
2023-09-16T21:24:45.861Z,5.22
2023-09-16T21:27:13.390Z,5.22
2023-09-16T21:29:40.640Z,4.95
2023-09-16T21:32:09.015Z,5.63
2023-09-16T21:34:36.426Z,4.82
2023-09-16T21:37:03.744Z,5.05
2023-09-16T21:39:31.049Z,5.55
2023-09-16T21:42:00.270Z,5.93
2023-09-16T21:44:27.553Z,5.68
2023-09-16T21:46:54.821Z,5.65
2023-09-16T21:49:22.082Z,5.47
2023-09-16T21:51:49.512Z,5.20
2023-09-16T21:54:16.758Z,5.72
2023-09-16T21:56:43.984Z,5.43
2023-09-16T21:59:11.188Z,5.50
2023-09-16T22:01:39.737Z,5.85
2023-09-16T22:04:07.125Z,5.32
2023-09-16T22:06:34.368Z,6.07
2023-09-16T22:09:01.673Z,5.70
2023-09-16T22:11:28.886Z,5.80
2023-09-16T22:13:56.152Z,5.00
2023-09-16T22:16:23.566Z,5.53
2023-09-16T22:18:50.791Z,5.10
2023-09-16T22:21:17.985Z,5.75
2023-09-16T22:23:45.345Z,5.80
2023-09-16T22:26:12.566Z,5.88
2023-09-16T22:28:40.355Z,5.13
2023-09-16T22:31:07.696Z,6.10
2023-09-16T22:33:34.959Z,5.15
2023-09-16T22:36:05.275Z,5.13
2023-09-16T22:38:32.478Z,5.20
2023-09-16T22:40:59.700Z,4.88
2023-09-16T22:43:26.947Z,5.43
2023-09-16T22:45:54.446Z,5.30
2023-09-16T22:48:21.752Z,5.63
2023-09-16T22:50:52.321Z,4.80
2023-09-16T22:53:20.198Z,5.78
2023-09-16T22:55:47.561Z,5.63
2023-09-16T22:58:15.107Z,5.72
2023-09-16T23:00:42.424Z,5.15
2023-09-16T23:03:09.860Z,6.07
2023-09-16T23:05:37.401Z,5.60
2023-09-16T23:08:05.160Z,5.25
2023-09-16T23:10:32.534Z,5.93
2023-09-16T23:12:59.814Z,6.20
2023-09-16T23:15:27.027Z,5.53
2023-09-16T23:17:54.714Z,5.13
2023-09-16T23:20:22.054Z,6.00
2023-09-16T23:22:49.317Z,5.93
2023-09-16T23:25:17.446Z,5.45
2023-09-16T23:27:44.769Z,5.70
2023-09-16T23:30:12.219Z,5.95
2023-09-16T23:32:39.707Z,6.15
2023-09-16T23:35:07.216Z,5.78
2023-09-16T23:37:34.554Z,4.70
2023-09-16T23:40:01.877Z,5.57
2023-09-16T23:42:29.084Z,5.35
2023-09-16T23:44:56.392Z,5.43
2023-09-16T23:47:24.101Z,5.60
2023-09-16T23:49:51.301Z,5.25
2023-09-16T23:52:18.486Z,5.00
2023-09-16T23:54:45.672Z,5.43
2023-09-16T23:57:12.934Z,6.32
2023-09-16T23:59:40.150Z,6.05
